• Join FlightAware (Why Join?)
  • Login
  • US Flag 
12:47PM EST


 

Airport Tracker/Info


-or-


 

Live Flight TrackerFlight Track Log ✈ SWA706 ✈ 29-Aug-2014 ✈ KLGA - KATL

Flight Track Log - Related Links

Times and Time Zones

All times are in EDT time to prevent confusion due to time zone crossing. See the SWA706 flight status page for this flight to view local times or setup timezone preferences in your user account.

Time Position Orientation Groundspeed Altitude Reporting Facility
EDT Latitude Longitude Course Direction KTS MPH feet Rate Location/Type
10:17AM 40.8333 -73.8833 287° West 205 236 2,800  Level New York TRACON
10:19AM 40.8778 -74.0781 287° West 260 299 10,300 2,820 Climbing New York Center
10:20AM 40.8500 -74.1728 249° West 288 331 12,400 2,580 Climbing New York Center
10:21AM 40.8114 -74.2886 246° West 337 388 15,500 2,220 Climbing New York Center
10:22AM 40.7700 -74.4100 246° West 367 422 17,000 720 Climbing New York Center
10:23AM 40.7289 -74.5281 245° Southwest 367 422 17,000 1,140 Level New York Center
10:24AM 40.6828 -74.6653 246° West 372 428 19,300 2,400 Climbing New York Center
10:25AM 40.6389 -74.7939 246° West 377 434 21,800 2,460 Climbing New York Center
10:26AM 40.5947 -74.9253 246° West 382 440 24,300 2,220 Climbing New York Center
10:27AM 40.5419 -75.0586 243° Southwest 403 464 26,300 1,860 Climbing New York Center
10:28AM 40.4692 -75.1742 230° Southwest 409 471 28,100 2,040 Climbing New York Center
10:29AM 40.3914 -75.3000 231° Southwest 430 495 30,400 1,740 Climbing New York Center
10:30AM 40.3136 -75.4200 230° Southwest 440 506 31,600 1,260 Climbing New York Center
10:31AM 40.2358 -75.5453 231° Southwest 445 512 33,000 1,500 Climbing New York Center
10:32AM 40.1678 -75.6792 236° Southwest 445 512 34,600 900 Climbing New York Center
10:33AM 40.0972 -75.8208 237° Southwest 450 518 34,900 180 Climbing New York Center
10:34AM 40.0350 -75.9547 239° Southwest 450 518 35,000 480 Climbing New York Center
10:35AM 39.9708 -76.0881 238° Southwest 439 505 35,900 960 Climbing New York Center
10:36AM 39.9042 -76.2236 237° Southwest 439 505 37,000 1,020 Climbing New York Center
10:37AM 39.8272 -76.3528 232° Southwest 445 512 38,000 1,020 Climbing New York Center
10:39AM 39.7325 -76.4875 228° Southwest 455 524 39,400 840 Climbing Washington Center
10:40AM 39.6481 -76.6128 229° Southwest 453 521 40,000 240 Climbing Washington Center
10:41AM 39.5658 -76.7356 229° Southwest 452 520 40,000  Level Washington Center
10:42AM 39.4831 -76.8583 229° Southwest 453 521 40,000  Level Washington Center
10:43AM 39.3844 -77.0036 229° Southwest 451 519 40,000  Level Washington Center
10:44AM 39.3028 -77.1256 229° Southwest 450 518 40,000  Level Washington Center
10:45AM 39.2208 -77.2458 229° Southwest 448 516 40,000  Level Washington Center
10:46AM 39.1386 -77.3636 228° Southwest 445 512 40,000  Level Washington Center
10:47AM 39.0569 -77.4822 228° Southwest 444 511 40,000  Level Washington Center
10:48AM 38.9722 -77.6022 228° Southwest 438 504 40,000  Level Washington Center
10:49AM 38.8747 -77.7414 228° Southwest 438 504 40,000  Level Washington Center
10:50AM 38.8011 -77.8481 228° Southwest 448 516 40,000  Level Washington Center
10:51AM 38.7022 -77.9881 228° Southwest 443 510 40,000  Level Washington Center
10:52AM 38.6206 -78.1047 228° Southwest 443 510 40,000  Level Washington Center
10:53AM 38.5381 -78.2203 228° Southwest 443 510 40,000  Level Washington Center
10:54AM 38.4564 -78.3353 228° Southwest 441 507 40,000  Level Washington Center
10:55AM 38.3731 -78.4528 228° Southwest 442 509 40,000  Level Washington Center
10:56AM 38.2894 -78.5686 227° Southwest 444 511 40,000  Level Washington Center
10:57AM 38.1994 -78.6956 228° Southwest 446 513 40,000  Level Washington Center
10:58AM 38.1158 -78.8122 228° Southwest 447 514 40,000  Level Washington Center
10:59AM 38.0150 -78.9508 227° Southwest 447 514 40,000  Level Washington Center
11:00AM 37.9306 -79.0667 227° Southwest 447 514 40,000  Level Washington Center
11:01AM 37.8467 -79.1822 227° Southwest 447 514 40,000  Level Washington Center
11:02AM 37.7642 -79.2975 228° Southwest 446 513 40,000  Level Washington Center
11:03AM 37.6700 -79.4278 228° Southwest 445 512 40,000  Level Washington Center
11:05AM 37.5856 -79.5442 228° Southwest 449 517 40,000  Level Washington Center
11:06AM 37.5017 -79.6583 227° Southwest 447 514 40,000  Level Washington Center
11:07AM 37.4189 -79.7744 228° Southwest 452 520 40,000  Level Washington Center
11:08AM 37.3347 -79.8878 227° Southwest 451 519 40,000  Level Washington Center
11:09AM 37.2333 -80.0244 227° Southwest 448 516 40,000  Level Washington Center
11:10AM 37.1475 -80.1408 227° Southwest 456 525 40,000  Level Atlanta Center
11:11AM 37.0633 -80.2542 227° Southwest 456 525 40,000  Level Atlanta Center
11:12AM 36.9772 -80.3675 226° Southwest 456 525 40,000  Level Atlanta Center
11:13AM 36.8911 -80.4831 227° Southwest 456 525 40,000  Level Atlanta Center
11:14AM 36.8047 -80.5986 227° Southwest 456 525 40,000  Level Atlanta Center
11:15AM 36.7303 -80.7000 228° Southwest 456 525 40,000  Level Atlanta Center
11:16AM 36.6436 -80.8175 227° Southwest 451 519 40,000  Level Atlanta Center
11:17AM 36.5569 -80.9297 226° Southwest 456 525 40,000  Level Atlanta Center
11:18AM 36.4703 -81.0467 227° Southwest 461 531 40,000  Level Atlanta Center
11:19AM 36.3792 -81.1661 227° Southwest 461 531 40,000  Level Atlanta Center
11:20AM 36.2942 -81.2797 227° Southwest 461 531 40,000  Level Atlanta Center
11:21AM 36.2050 -81.3936 226° Southwest 461 531 40,000  Level Atlanta Center
11:22AM 36.1197 -81.5069 227° Southwest 461 531 40,000 -360 Level Atlanta Center
11:23AM 36.0303 -81.6225 226° Southwest 461 531 39,300 -840 Descending Atlanta Center
11:24AM 35.9428 -81.7356 226° Southwest 461 531 38,400 -660 Descending Atlanta Center
11:25AM 35.8531 -81.8533 227° Southwest 461 531 38,000 -240 Descending Atlanta Center
11:26AM 35.7633 -81.9658 226° Southwest 461 531 38,000 -180 Level Atlanta Center
11:27AM 35.6817 -82.0700 226° Southwest 467 537 37,700 -780 Descending Atlanta Center
11:28AM 35.5753 -82.2056 226° Southwest 467 537 36,500 -900 Descending Atlanta Center
11:29AM 35.4850 -82.3222 226° Southwest 467 537 36,000 -360 Descending Atlanta Center
11:30AM 35.3947 -82.4336 225° Southwest 462 532 35,800 -540 Descending Atlanta Center
11:31AM 35.3022 -82.5450 225° Southwest 462 532 35,000 -420 Descending Atlanta Center
11:32AM 35.2056 -82.6458 220° Southwest 462 532 35,000  Level Atlanta Center
11:33AM 35.1086 -82.7542 222° Southwest 462 532 35,000 -300 Level Atlanta Center
11:34AM 35.0117 -82.8594 222° Southwest 468 539 34,400 -540 Descending Atlanta Center
11:35AM 34.9206 -82.9544 221° Southwest 473 544 34,000 -720 Descending Atlanta Center
11:36AM 34.8172 -83.0647 221° Southwest 473 544 33,000 -780 Descending Atlanta Center
11:37AM 34.7200 -83.1694 222° Southwest 473 544 32,500 -1,080 Descending Atlanta Center
11:38AM 34.6247 -83.2739 222° Southwest 473 544 30,900 -2,400 Descending Atlanta Center
11:39AM 34.5292 -83.3783 222° Southwest 468 539 27,700 -3,000 Descending Atlanta Center
11:40AM 34.4336 -83.4772 220° Southwest 463 533 24,900 -2,760 Descending Atlanta Center
11:41AM 34.3444 -83.5708 221° Southwest 453 521 22,200 -2,700 Descending Atlanta Center
11:42AM 34.2569 -83.6669 222° Southwest 435 501 19,600 -2,760 Descending Atlanta Center
11:43AM 34.1717 -83.7550 221° Southwest 423 487 16,700 -2,700 Descending Atlanta Center
11:44AM 34.0883 -83.8406 220° Southwest 412 474 14,200 -1,920 Descending Atlanta Center
11:44AM 34.0500 -83.9000 232° Southwest 383 441 13,700 -720 Descending Atlanta TRACON
11:45AM 33.9667 -84.0000 225° Southwest 366 421 13,100 -660 Descending Atlanta TRACON
11:46AM 33.9000 -84.0833 226° Southwest 382 440 12,400 -600 Descending Atlanta TRACON
11:47AM 33.8167 -84.1667 220° Southwest 379 436 12,000 -240 Descending Atlanta TRACON
11:48AM 33.7667 -84.2500 234° Southwest 304 350 12,000  Level Atlanta TRACON
11:49AM 33.7333 -84.3167 239° Southwest 264 304 12,000 -600 Level Atlanta TRACON
11:50AM 33.7333 -84.4167 270° West 259 298 10,900 -1,200 Descending Atlanta TRACON
11:51AM 33.7333 -84.5000 270° West 245 282 9,500 -1,500 Descending Atlanta TRACON
11:52AM 33.7333 -84.5833 270° West 229 264 8,000 -1,500 Descending Atlanta TRACON
11:54AM 33.6833 -84.6167 270° West 190 219 5,000 -1,560 Descending Atlanta TRACON
11:55AM 33.6500 -84.5667 129° Southeast 174 200 3,400 -1,380 Descending Atlanta TRACON
11:56AM 33.6500 -84.5167 90° East 153 176 2,300 -960 Descending Atlanta TRACON
11:57AM 33.6500 -84.4667 90° East 146 168 1,500 -840 Descending Atlanta TRACON
11:59AM 33.6333 -84.4167 103° East  Level FlightAware Approximate